Appling, Georgia
Current Conditions -  °F | °C
As of 9:55 PM on Sunday 23 Nov 2014 (Local Time) from KHQU Reporting Station
Scattered Clouds Scattered Clouds  
Wind Chill: 66°   Ceiling: Unl
Heat Index: 66°   Visibility: 10mi
Dew Point: 66°   Wind: 6mph
Humidity: 99%   Direction: 220°SW
Pressure: 29.81"   Gusts: 17mph
Location:  33.55°N, 82.32°W
Report Text: KHQU 240255Z AUTO 22005G15KT 10SM SCT018 19/19 A2981 RMK AO1 6//// T01910190
Loading
Personal Weather Stations






























Interactive Weather Map New forecast layout! Learn more

10-Day Weather Forecast

Advertisements
Track Severe Weather on mobile